createdAt,value
2023-04-13T00:01:34.114Z,5.40
2023-04-13T00:04:04.759Z,5.45
2023-04-13T00:06:33.208Z,5.39
2023-04-13T00:09:03.027Z,5.40
2023-04-13T00:11:32.026Z,5.39
2023-04-13T00:14:00.318Z,5.44
2023-04-13T00:16:29.709Z,5.45
2023-04-13T00:18:57.708Z,5.48
2023-04-13T00:21:25.966Z,5.49
2023-04-13T00:23:53.900Z,5.42
2023-04-13T00:26:25.632Z,5.45
2023-04-13T00:28:53.809Z,5.50
2023-04-13T00:31:21.803Z,5.60
2023-04-13T00:33:49.744Z,5.60
2023-04-13T00:36:17.928Z,5.69
2023-04-13T00:38:46.720Z,5.70
2023-04-13T00:41:14.608Z,5.79
2023-04-13T00:43:44.955Z,5.75
2023-04-13T00:46:12.891Z,5.76
2023-04-13T00:48:41.169Z,5.93
2023-04-13T00:51:09.428Z,5.94
2023-04-13T00:53:37.298Z,5.90
2023-04-13T00:56:05.995Z,5.98
2023-04-13T00:58:34.307Z,6.04
2023-04-13T01:01:03.638Z,6.03
2023-04-13T01:03:31.625Z,6.07
2023-04-13T01:06:08.183Z,6.07
2023-04-13T01:08:37.296Z,6.14
2023-04-13T01:11:06.993Z,6.18
2023-04-13T01:13:38.715Z,6.22
2023-04-13T01:16:12.003Z,6.16
2023-04-13T01:18:40.412Z,6.23
2023-04-13T01:21:08.768Z,6.27
2023-04-13T01:23:43.748Z,6.23
2023-04-13T01:26:11.641Z,6.27
2023-04-13T01:28:40.985Z,6.18
2023-04-13T01:31:12.012Z,6.11
2023-04-13T01:33:40.625Z,6.14
2023-04-13T01:36:09.267Z,6.23
2023-04-13T01:38:37.883Z,6.26
2023-04-13T01:41:06.516Z,6.18
2023-04-13T01:43:35.123Z,6.16
2023-04-13T01:46:05.571Z,6.18
2023-04-13T01:48:36.298Z,6.29
2023-04-13T01:51:07.324Z,6.22
2023-04-13T01:53:38.473Z,6.21
2023-04-13T01:56:07.385Z,6.20
2023-04-13T01:58:35.569Z,6.26
2023-04-13T02:01:07.955Z,6.24
2023-04-13T02:03:38.269Z,6.41
2023-04-13T02:06:07.495Z,6.43
2023-04-13T02:08:37.123Z,6.43
2023-04-13T02:11:05.575Z,6.58
2023-04-13T02:13:33.877Z,6.51
2023-04-13T02:16:01.843Z,6.49
2023-04-13T02:18:32.108Z,6.53
2023-04-13T02:21:00.633Z,6.50
2023-04-13T02:23:28.668Z,6.47
2023-04-13T02:25:56.523Z,6.63
2023-04-13T02:28:26.295Z,6.60
2023-04-13T02:30:54.177Z,6.57
2023-04-13T02:33:22.204Z,6.60
2023-04-13T02:35:52.043Z,6.66
2023-04-13T02:38:20.401Z,6.59
2023-04-13T02:40:49.358Z,6.49
2023-04-13T02:43:17.673Z,6.62
2023-04-13T02:45:46.377Z,6.60
2023-04-13T02:48:14.377Z,6.65
2023-04-13T02:50:42.209Z,6.67
2023-04-13T02:53:11.524Z,6.69
2023-04-13T02:55:39.490Z,6.66
2023-04-13T02:58:07.665Z,6.60
2023-04-13T03:00:35.711Z,6.60
2023-04-13T03:03:04.163Z,6.63
2023-04-13T03:05:32.494Z,6.58
2023-04-13T03:08:00.407Z,6.66
2023-04-13T03:10:31.102Z,6.56
2023-04-13T03:12:59.257Z,6.69
2023-04-13T03:15:27.154Z,6.53
2023-04-13T03:17:55.114Z,6.55
2023-04-13T03:20:23.810Z,6.54
2023-04-13T03:22:53.558Z,6.47
2023-04-13T03:25:21.542Z,6.57
2023-04-13T03:27:52.473Z,6.62
2023-04-13T03:30:20.352Z,6.61
2023-04-13T03:32:48.314Z,6.59
2023-04-13T03:35:16.783Z,6.61
2023-04-13T03:37:44.918Z,6.59
2023-04-13T03:40:13.729Z,6.62
2023-04-13T03:42:42.029Z,6.69
2023-04-13T03:45:13.055Z,6.63
2023-04-13T03:47:41.055Z,6.52
2023-04-13T03:50:10.036Z,6.59
2023-04-13T03:52:37.914Z,6.71
2023-04-13T03:55:06.839Z,6.66
2023-04-13T03:57:35.234Z,6.67
2023-04-13T04:00:03.745Z,6.63
2023-04-13T04:02:33.250Z,6.71
2023-04-13T04:05:01.284Z,6.71
2023-04-13T04:07:29.240Z,6.66
2023-04-13T04:09:57.147Z,6.67
2023-04-13T04:12:25.022Z,6.84
2023-04-13T04:14:53.188Z,6.63
2023-04-13T04:17:21.451Z,6.72
2023-04-13T04:19:50.897Z,6.68
2023-04-13T04:22:18.901Z,6.66
2023-04-13T04:24:46.802Z,6.83
2023-04-13T04:27:15.434Z,6.79
2023-04-13T04:29:49.126Z,6.75
2023-04-13T04:32:18.622Z,6.73
2023-04-13T04:34:46.789Z,6.73
2023-04-13T04:37:20.542Z,6.75
2023-04-13T04:39:49.199Z,6.74
2023-04-13T04:42:18.740Z,6.82
2023-04-13T04:44:49.794Z,6.89
2023-04-13T04:47:18.809Z,6.77
2023-04-13T04:49:47.310Z,6.69
2023-04-13T04:52:16.591Z,6.60
2023-04-13T04:54:44.534Z,6.62
2023-04-13T04:57:14.655Z,6.77
2023-04-13T04:59:42.623Z,6.66
2023-04-13T05:02:10.782Z,6.55
2023-04-13T05:04:39.749Z,6.58
2023-04-13T05:07:07.666Z,6.62
2023-04-13T05:09:38.691Z,6.64
2023-04-13T05:12:07.566Z,6.55
2023-04-13T05:14:35.455Z,6.52
2023-04-13T05:17:03.435Z,6.71
2023-04-13T05:19:31.597Z,6.74
2023-04-13T05:22:01.064Z,6.64
2023-04-13T05:24:29.041Z,6.69
2023-04-13T05:26:58.883Z,6.72
2023-04-13T05:29:26.847Z,6.63
2023-04-13T05:31:55.025Z,6.64
2023-04-13T05:34:23.025Z,6.70
2023-04-13T05:36:51.397Z,6.76
2023-04-13T05:39:19.658Z,6.79
2023-04-13T05:41:47.992Z,6.75
2023-04-13T05:44:17.343Z,6.66
2023-04-13T05:46:45.191Z,6.71
2023-04-13T05:49:13.126Z,6.79
2023-04-13T05:51:41.428Z,6.83
2023-04-13T05:54:10.508Z,6.81
2023-04-13T05:56:38.462Z,6.92
2023-04-13T05:59:06.622Z,6.94
2023-04-13T06:01:36.514Z,7.00
2023-04-13T06:04:07.323Z,7.06
2023-04-13T06:06:38.955Z,7.11
2023-04-13T06:09:08.773Z,7.23
2023-04-13T06:11:36.744Z,7.31
2023-04-13T06:14:05.470Z,7.26
2023-04-13T06:16:33.417Z,7.33
2023-04-13T06:19:02.933Z,7.21
2023-04-13T06:21:30.958Z,7.12
2023-04-13T06:23:59.089Z,7.07
2023-04-13T06:26:28.288Z,7.11
2023-04-13T06:28:56.883Z,7.27
2023-04-13T06:31:27.820Z,7.24
2023-04-13T06:33:56.905Z,7.29
2023-04-13T06:36:26.751Z,7.35
2023-04-13T06:38:54.727Z,7.34
2023-04-13T06:41:22.678Z,7.63
2023-04-13T06:43:50.608Z,7.60
2023-04-13T06:46:20.046Z,7.43
2023-04-13T06:48:48.300Z,7.45
2023-04-13T06:51:16.470Z,7.45
2023-04-13T06:53:46.044Z,7.52
2023-04-13T06:56:13.997Z,7.67
2023-04-13T06:58:41.986Z,7.74
2023-04-13T07:01:09.962Z,7.92
2023-04-13T07:03:38.188Z,7.65
2023-04-13T07:06:06.762Z,7.80
2023-04-13T07:08:35.517Z,8.01
2023-04-13T07:11:04.868Z,7.98
2023-04-13T07:13:32.874Z,7.94
2023-04-13T07:16:00.886Z,7.89
2023-04-13T07:18:28.808Z,7.71
2023-04-13T07:20:57.381Z,7.64
2023-04-13T07:23:25.601Z,7.81
2023-04-13T07:25:53.523Z,7.79
2023-04-13T07:28:22.810Z,7.87
2023-04-13T07:30:53.453Z,7.83
2023-04-13T07:33:24.498Z,8.11
2023-04-13T07:35:54.791Z,8.16
2023-04-13T07:38:23.311Z,8.18
2023-04-13T07:40:51.920Z,8.26
2023-04-13T07:43:20.664Z,8.39
2023-04-13T07:45:50.120Z,8.52
2023-04-13T07:48:18.062Z,8.79
2023-04-13T07:50:46.885Z,8.72
2023-04-13T07:53:14.822Z,8.82
2023-04-13T07:55:43.028Z,8.78
2023-04-13T07:58:10.957Z,8.72
2023-04-13T08:00:38.904Z,8.88
2023-04-13T08:03:08.770Z,8.69
2023-04-13T08:05:37.443Z,8.75
2023-04-13T08:08:05.635Z,8.74
2023-04-13T08:10:33.653Z,8.74
2023-04-13T08:13:01.600Z,8.71
2023-04-13T08:15:29.521Z,8.68
2023-04-13T08:17:58.594Z,8.69
2023-04-13T08:20:27.968Z,8.66
2023-04-13T08:22:55.838Z,8.43
2023-04-13T08:25:24.047Z,8.68
2023-04-13T08:27:52.363Z,8.53
2023-04-13T08:30:20.298Z,8.46
2023-04-13T08:32:48.464Z,8.35
2023-04-13T08:35:17.429Z,8.49
2023-04-13T08:37:46.712Z,8.60
2023-04-13T08:40:14.940Z,8.52
2023-04-13T08:42:42.819Z,8.40
2023-04-13T08:45:11.894Z,8.62
2023-04-13T08:47:40.931Z,8.68
2023-04-13T08:50:10.012Z,8.65
2023-04-13T08:52:44.362Z,8.61
2023-04-13T08:55:15.909Z,8.67
2023-04-13T08:57:46.260Z,8.63
2023-04-13T09:00:18.120Z,8.77
2023-04-13T09:03:02.917Z,8.79
2023-04-13T09:05:34.188Z,8.83
2023-04-13T09:08:04.707Z,9.05
2023-04-13T09:10:35.405Z,9.05
2023-04-13T09:13:03.483Z,9.15
2023-04-13T09:15:32.216Z,9.19
2023-04-13T09:18:09.576Z,9.28
2023-04-13T09:20:38.342Z,9.32
2023-04-13T09:23:14.591Z,9.58
2023-04-13T09:25:44.057Z,9.30
2023-04-13T09:28:17.534Z,9.68
2023-04-13T09:30:45.629Z,9.60
2023-04-13T09:35:43.830Z,10.13
2023-04-13T09:38:15.573Z,9.96
2023-04-13T09:40:54.175Z,10.14
2023-04-13T09:43:22.282Z,9.92
2023-04-13T09:45:50.745Z,10.04
2023-04-13T09:48:20.597Z,10.23
2023-04-13T09:50:59.724Z,10.39
2023-04-13T09:53:28.817Z,10.29
2023-04-13T09:56:01.043Z,10.36
2023-04-13T09:58:28.892Z,10.48
2023-04-13T10:00:57.088Z,10.82
2023-04-13T10:03:25.111Z,10.64
2023-04-13T10:05:59.333Z,10.54
2023-04-13T10:11:05.360Z,10.30
2023-04-13T10:13:41.400Z,10.43
2023-04-13T10:16:29.916Z,10.36
2023-04-13T10:19:01.989Z,10.37
2023-04-13T10:21:33.749Z,10.41
2023-04-13T10:24:01.955Z,10.50
2023-04-13T10:26:35.913Z,10.89
2023-04-13T10:29:04.613Z,10.69
2023-04-13T10:31:40.571Z,10.60
2023-04-13T10:34:09.218Z,10.98
2023-04-13T10:36:39.361Z,10.99
2023-04-13T10:39:08.308Z,11.33
2023-04-13T10:41:37.860Z,11.64
2023-04-13T10:44:08.884Z,11.91
2023-04-13T10:46:36.986Z,11.84
2023-04-13T10:49:05.406Z,11.88
2023-04-13T10:51:40.253Z,11.71
2023-04-13T10:54:08.320Z,11.89
2023-04-13T10:56:37.642Z,11.86
2023-04-13T10:59:05.708Z,11.83
2023-04-13T11:01:35.873Z,11.53
2023-04-13T11:04:07.038Z,11.46
2023-04-13T11:06:38.448Z,11.35
2023-04-13T11:09:13.167Z,11.12
2023-04-13T11:11:44.568Z,11.40
2023-04-13T11:14:19.273Z,11.35
2023-04-13T11:16:49.437Z,11.21
2023-04-13T11:19:19.036Z,11.43
2023-04-13T11:21:48.963Z,11.85
2023-04-13T11:24:25.659Z,11.93
2023-04-13T11:27:32.537Z,11.85
2023-04-13T11:30:00.945Z,11.87
2023-04-13T11:32:28.939Z,11.87
2023-04-13T11:35:08.184Z,11.88
2023-04-13T11:37:39.615Z,11.82
2023-04-13T11:40:14.681Z,11.84
2023-04-13T11:42:45.132Z,11.40
2023-04-13T11:45:14.783Z,11.51
2023-04-13T11:47:42.751Z,11.36
2023-04-13T11:50:12.932Z,11.18
2023-04-13T11:52:41.540Z,11.36
2023-04-13T11:55:21.442Z,11.68
2023-04-13T11:57:52.507Z,11.63
2023-04-13T12:00:24.312Z,11.75
2023-04-13T12:03:01.962Z,11.69
2023-04-13T12:05:32.548Z,11.75
2023-04-13T12:08:04.275Z,11.81
2023-04-13T12:13:18.421Z,11.91
2023-04-13T12:16:07.760Z,11.75
2023-04-13T12:19:17.007Z,11.57
2023-04-13T12:22:00.102Z,11.47
2023-04-13T12:24:37.871Z,11.80
2023-04-13T12:27:18.396Z,11.70
2023-04-13T12:29:55.130Z,11.59
2023-04-13T12:32:23.277Z,11.71
2023-04-13T12:34:51.558Z,11.85
2023-04-13T12:37:19.496Z,12.07
2023-04-13T12:39:47.796Z,11.84
2023-04-13T12:42:16.128Z,11.80
2023-04-13T12:44:44.076Z,11.55
2023-04-13T12:47:13.474Z,11.25
2023-04-13T12:49:43.158Z,11.24
2023-04-13T12:52:11.371Z,11.19
2023-04-13T12:54:39.347Z,11.32
2023-04-13T12:57:07.384Z,11.42
2023-04-13T12:59:35.315Z,11.67
2023-04-13T13:02:03.384Z,11.67
2023-04-13T13:04:33.243Z,11.96
2023-04-13T13:07:01.516Z,12.38
2023-04-13T13:09:29.545Z,12.29
2023-04-13T13:11:57.434Z,12.30
2023-04-13T13:14:25.308Z,12.32
2023-04-13T13:16:53.741Z,12.38
2023-04-13T13:19:21.886Z,12.15
2023-04-13T13:21:51.218Z,12.82
2023-04-13T13:24:19.420Z,12.81
2023-04-13T13:29:24.153Z,13.12
2023-04-13T13:31:52.563Z,13.02
2023-04-13T13:34:20.727Z,13.16
2023-04-13T13:36:49.585Z,13.09
2023-04-13T13:39:21.069Z,12.86
2023-04-13T13:41:49.405Z,13.01
2023-04-13T13:44:17.552Z,13.12
2023-04-13T13:46:45.557Z,13.17
2023-04-13T13:49:13.567Z,13.21
2023-04-13T13:51:41.824Z,13.38
2023-04-13T13:54:09.857Z,12.75
2023-04-13T13:56:39.099Z,13.08
2023-04-13T13:59:08.713Z,13.25
2023-04-13T14:01:37.784Z,13.15
2023-04-13T14:04:06.761Z,12.95
2023-04-13T14:06:34.844Z,13.02
2023-04-13T14:09:03.165Z,13.39
2023-04-13T14:11:31.899Z,13.16
2023-04-13T14:14:10.896Z,13.58
2023-04-13T14:16:42.900Z,13.57
2023-04-13T14:19:10.801Z,13.58
2023-04-13T14:21:38.789Z,13.80
2023-04-13T14:24:07.266Z,13.99
2023-04-13T14:26:38.055Z,14.14
2023-04-13T14:29:08.975Z,14.01
2023-04-13T14:31:36.955Z,14.08
2023-04-13T14:34:04.944Z,14.09
2023-04-13T14:36:33.233Z,14.33
2023-04-13T14:39:01.570Z,14.30
2023-04-13T14:41:29.886Z,14.33
2023-04-13T14:43:58.094Z,13.99
2023-04-13T14:46:28.924Z,14.10
2023-04-13T14:48:56.910Z,14.10
2023-04-13T14:51:25.084Z,13.83
2023-04-13T14:54:01.363Z,13.88
2023-04-13T14:56:36.243Z,13.94
2023-04-13T14:59:04.611Z,13.62
2023-04-13T15:01:34.038Z,13.69
2023-04-13T15:04:02.576Z,13.76
2023-04-13T15:06:30.644Z,13.58
2023-04-13T15:08:58.896Z,13.33
2023-04-13T15:11:27.388Z,13.47
2023-04-13T15:13:55.314Z,13.48
2023-04-13T15:16:23.341Z,13.74
2023-04-13T15:18:52.951Z,13.60
2023-04-13T15:21:20.889Z,13.90
2023-04-13T15:23:48.847Z,13.96
2023-04-13T15:26:19.567Z,14.03
2023-04-13T15:28:47.523Z,14.23
2023-04-13T15:31:15.420Z,14.48
2023-04-13T15:33:43.366Z,14.15
2023-04-13T15:36:15.863Z,14.23
2023-04-13T15:38:43.846Z,14.20
2023-04-13T15:41:12.163Z,14.30
2023-04-13T15:43:44.137Z,14.66
2023-04-13T15:46:12.362Z,14.88
2023-04-13T15:48:40.772Z,14.87
2023-04-13T15:51:09.274Z,14.69
2023-04-13T15:53:38.598Z,14.46
2023-04-13T15:56:08.977Z,14.19
2023-04-13T15:58:37.272Z,14.01
2023-04-13T16:01:06.537Z,14.02
2023-04-13T16:03:35.352Z,14.00
2023-04-13T16:06:03.489Z,13.99
2023-04-13T16:08:31.373Z,14.40
2023-04-13T16:11:04.795Z,14.55
2023-04-13T16:13:48.662Z,14.21
2023-04-13T16:16:18.541Z,14.02
2023-04-13T16:18:46.548Z,13.88
2023-04-13T16:21:19.147Z,13.91
2023-04-13T16:23:47.405Z,13.78
2023-04-13T16:26:16.746Z,13.69
2023-04-13T16:28:44.646Z,13.54
2023-04-13T16:31:12.989Z,13.63
2023-04-13T16:33:41.197Z,13.55
2023-04-13T16:36:10.064Z,13.58
2023-04-13T16:38:40.037Z,13.59
2023-04-13T16:41:07.929Z,13.20
2023-04-13T16:43:37.367Z,13.18
2023-04-13T16:46:06.753Z,12.95
2023-04-13T16:48:34.798Z,12.81
2023-04-13T16:51:03.304Z,12.86
2023-04-13T16:53:31.745Z,12.83
2023-04-13T16:55:59.609Z,12.75
2023-04-13T16:58:27.538Z,12.87
2023-04-13T17:00:57.446Z,13.03
2023-04-13T17:03:27.655Z,12.91
2023-04-13T17:05:56.150Z,12.94
2023-04-13T17:08:24.591Z,13.00
2023-04-13T17:10:52.745Z,13.07
2023-04-13T17:13:20.858Z,13.14
2023-04-13T17:15:48.859Z,12.90
2023-04-13T17:18:18.463Z,12.78
2023-04-13T17:20:46.797Z,12.82
2023-04-13T17:23:14.676Z,12.59
2023-04-13T17:25:42.626Z,12.79
2023-04-13T17:28:10.520Z,12.85
2023-04-13T17:30:38.393Z,12.81
2023-04-13T17:33:07.110Z,12.46
2023-04-13T17:35:36.527Z,12.54
2023-04-13T17:38:04.720Z,12.45
2023-04-13T17:40:36.383Z,12.57
2023-04-13T17:43:07.581Z,12.46
2023-04-13T17:45:35.730Z,12.39
2023-04-13T17:48:04.893Z,12.39
2023-04-13T17:50:32.899Z,12.36
2023-04-13T17:53:04.114Z,12.25
2023-04-13T17:55:33.334Z,12.18
2023-04-13T17:58:01.256Z,12.16
2023-04-13T18:00:29.325Z,12.15
2023-04-13T18:02:57.865Z,12.09
2023-04-13T18:05:26.764Z,12.14
2023-04-13T18:07:54.687Z,11.97
2023-04-13T18:10:24.674Z,11.88
2023-04-13T18:12:52.561Z,11.61
2023-04-13T18:15:20.579Z,11.72
2023-04-13T18:17:48.935Z,11.59
2023-04-13T18:20:16.904Z,11.50
2023-04-13T18:22:44.970Z,11.36
2023-04-13T18:25:12.840Z,11.33
2023-04-13T18:27:44.099Z,11.24
2023-04-13T18:30:13.423Z,11.16
2023-04-13T18:32:41.388Z,11.04
2023-04-13T18:35:12.288Z,10.91
2023-04-13T18:37:40.944Z,10.91
2023-04-13T18:40:10.292Z,10.74
2023-04-13T18:42:39.924Z,10.73
2023-04-13T18:45:10.117Z,10.59
2023-04-13T18:47:38.084Z,10.42
2023-04-13T18:50:06.622Z,10.47
2023-04-13T18:52:34.598Z,10.35
2023-04-13T18:55:02.459Z,10.34
2023-04-13T18:57:30.428Z,10.13
2023-04-13T18:59:58.360Z,10.10
2023-04-13T19:02:28.217Z,10.09
2023-04-13T19:04:56.415Z,9.82
2023-04-13T19:07:24.339Z,9.81
2023-04-13T19:09:52.208Z,9.71
2023-04-13T19:12:20.533Z,9.60
2023-04-13T19:14:48.444Z,9.58
2023-04-13T19:17:16.487Z,9.38
2023-04-13T19:19:46.026Z,9.52
2023-04-13T19:22:14.557Z,9.30
2023-04-13T19:24:42.427Z,9.14
2023-04-13T19:27:10.334Z,9.04
2023-04-13T19:29:39.793Z,9.02
2023-04-13T19:32:08.302Z,8.96
2023-04-13T19:34:36.362Z,8.97
2023-04-13T19:37:05.687Z,8.74
2023-04-13T19:39:33.985Z,8.87
2023-04-13T19:42:02.391Z,8.77
2023-04-13T19:44:30.421Z,8.61
2023-04-13T19:46:58.276Z,8.62
2023-04-13T19:49:26.756Z,8.67
2023-04-13T19:51:55.023Z,8.45
2023-04-13T19:54:24.309Z,8.41
2023-04-13T19:56:52.461Z,8.41
2023-04-13T19:59:20.614Z,8.51
2023-04-13T20:01:48.693Z,8.49
2023-04-13T20:04:16.849Z,8.60
2023-04-13T20:06:44.732Z,8.60
2023-04-13T20:09:14.306Z,8.43
2023-04-13T20:11:43.598Z,8.57
2023-04-13T20:14:12.590Z,8.54
2023-04-13T20:16:40.700Z,8.53
2023-04-13T20:19:09.436Z,8.51
2023-04-13T20:21:38.047Z,8.34
2023-04-13T20:24:06.525Z,8.44
2023-04-13T20:26:34.456Z,8.34
2023-04-13T20:29:04.488Z,8.31
2023-04-13T20:31:33.597Z,8.35
2023-04-13T20:34:04.100Z,8.40
2023-04-13T20:36:32.535Z,8.37
2023-04-13T20:39:00.611Z,8.36
2023-04-13T20:41:29.833Z,8.39
2023-04-13T20:43:58.742Z,8.35
2023-04-13T20:46:34.388Z,8.35
2023-04-13T20:49:04.664Z,8.42
2023-04-13T20:51:33.521Z,8.39
2023-04-13T20:54:02.998Z,8.30
2023-04-13T20:56:31.603Z,8.19
2023-04-13T20:59:00.902Z,8.19
2023-04-13T21:01:31.796Z,8.11
2023-04-13T21:03:59.946Z,8.10
2023-04-13T21:06:29.148Z,8.14
2023-04-13T21:08:58.847Z,8.24
2023-04-13T21:11:27.162Z,8.21
2023-04-13T21:13:55.068Z,8.08
2023-04-13T21:16:25.264Z,8.10
2023-04-13T21:18:54.686Z,8.07
2023-04-13T21:21:23.544Z,8.18
2023-04-13T21:23:51.512Z,8.10
2023-04-13T21:26:20.812Z,8.03
2023-04-13T21:28:49.105Z,8.05
2023-04-13T21:31:17.003Z,8.04
2023-04-13T21:33:45.014Z,7.99
2023-04-13T21:38:45.372Z,7.92
2023-04-13T21:41:16.310Z,8.01
2023-04-13T21:43:44.670Z,8.06
2023-04-13T21:46:12.659Z,8.15
2023-04-13T21:48:40.717Z,8.10
2023-04-13T21:51:09.445Z,8.05
2023-04-13T21:53:38.993Z,8.16
2023-04-13T21:56:07.530Z,8.22
2023-04-13T21:58:38.932Z,8.16
2023-04-13T22:01:07.279Z,8.15
2023-04-13T22:03:37.507Z,7.90
2023-04-13T22:06:07.187Z,8.11
2023-04-13T22:08:35.109Z,7.93
2023-04-13T22:11:04.581Z,7.94
2023-04-13T22:13:32.827Z,7.94
2023-04-13T22:16:00.835Z,7.93
2023-04-13T22:18:28.744Z,7.85
2023-04-13T22:20:56.635Z,7.92
2023-04-13T22:23:24.560Z,7.89
2023-04-13T22:25:53.293Z,7.86
2023-04-13T22:28:22.541Z,7.87
2023-04-13T22:30:52.191Z,7.89
2023-04-13T22:33:20.145Z,7.90
2023-04-13T22:35:50.561Z,8.12
2023-04-13T22:38:18.709Z,8.05
2023-04-13T22:40:46.615Z,8.11
2023-04-13T22:43:14.476Z,8.16
2023-04-13T22:45:44.033Z,8.28
2023-04-13T22:48:11.911Z,8.27
2023-04-13T22:50:39.837Z,8.06
2023-04-13T22:53:08.014Z,8.09
2023-04-13T22:55:35.926Z,8.26
2023-04-13T22:58:03.865Z,8.23
2023-04-13T23:00:31.790Z,8.32
2023-04-13T23:03:01.275Z,8.34
2023-04-13T23:05:29.666Z,8.25
2023-04-13T23:07:58.144Z,8.24
2023-04-13T23:10:31.847Z,8.25
2023-04-13T23:13:00.063Z,7.92
2023-04-13T23:15:37.822Z,7.82
2023-04-13T23:18:07.558Z,7.93
2023-04-13T23:20:35.707Z,7.86
2023-04-13T23:23:03.952Z,7.71
2023-04-13T23:25:31.937Z,7.75
2023-04-13T23:28:00.265Z,7.79
2023-04-13T23:30:28.215Z,7.65
2023-04-13T23:32:56.283Z,7.54
2023-04-13T23:35:25.636Z,7.43
2023-04-13T23:37:54.047Z,7.45
2023-04-13T23:40:22.098Z,7.33
2023-04-13T23:42:49.998Z,7.15
2023-04-13T23:45:18.175Z,7.00
2023-04-13T23:47:46.215Z,6.90
2023-04-13T23:50:17.822Z,6.90
2023-04-13T23:52:47.589Z,6.92
2023-04-13T23:55:15.637Z,6.79
2023-04-13T23:57:43.628Z,6.99
